Facebook Twitter

Wetterstation Reutte

Messwerte
  Temperatur Wetter Niederschlag Luftdruck Wind
So, 01:00 Uhr 7° - 0 mm 1018.1 hPa 4 km/h SW
So, 00:00 Uhr 10° - 0 mm 1016.8 hPa 7 km/h SO
Sa, 23:00 Uhr 9° - 0 mm 1017.1 hPa 4 km/h SW
Sa, 22:00 Uhr 12° - 0 mm 1015.6 hPa 7 km/h SO
Sa, 21:00 Uhr 12° - 0 mm 1015.2 hPa 4 km/h SW
Sa, 20:00 Uhr 15° - 0.1 mm 1013.7 hPa 4 km/h NW
Sa, 19:00 Uhr 16° - 0 mm 1013.4 hPa 7 km/h NW
Sa, 18:00 Uhr 17° - 0.1 mm 1013.5 hPa 11 km/h NW
Sa, 17:00 Uhr 17° - 0 mm 1014 hPa 14 km/h N
Sa, 16:00 Uhr 16° - 0 mm 1014.4 hPa 18 km/h N
Sa, 15:00 Uhr 16° - 0 mm 1015.1 hPa 14 km/h N
Sa, 14:00 Uhr 15° - 0 mm 1016 hPa 14 km/h N
Sa, 13:00 Uhr 14° - 0 mm 1016.7 hPa 14 km/h N
Sa, 12:00 Uhr 13° - 0 mm 1017.3 hPa 14 km/h N
Sa, 11:00 Uhr 11° - 0 mm 1018.3 hPa 4 km/h N
Sa, 10:00 Uhr 9° - 0 mm 1019.7 hPa 4 km/h SW
Sa, 09:00 Uhr 6° - 0 mm 1021.4 hPa 4 km/h SW
Sa, 08:00 Uhr 4° - 0.1 mm 1022.4 hPa 4 km/h S
Sa, 07:00 Uhr 1° - 0 mm 1023.5 hPa 4 km/h SO
Sa, 06:00 Uhr 0° - 0 mm 1023.8 hPa 0 km/h SO

Alle Zeitangaben MESZ